sensor_id;sensor_type;location;lat;lon;timestamp;pressure;altitude;pressure_sealevel;temperature;humidity
36726;BME280;44936;52.086;5.150;2023-04-04T00:02:12;103650.13;;;3.08;100.00
36726;BME280;44936;52.086;5.150;2023-04-04T00:04:37;103658.59;;;3.06;100.00
36726;BME280;44936;52.086;5.150;2023-04-04T00:07:02;103661.06;;;3.04;100.00
36726;BME280;44936;52.086;5.150;2023-04-04T00:09:28;103676.44;;;3.13;100.00
36726;BME280;44936;52.086;5.150;2023-04-04T00:11:53;103693.47;;;3.09;100.00
36726;BME280;44936;52.086;5.150;2023-04-04T00:14:19;103690.59;;;3.06;100.00
36726;BME280;44936;52.086;5.150;2023-04-04T00:16:44;103689.94;;;3.09;100.00
36726;BME280;44936;52.086;5.150;2023-04-04T00:19:10;103668.72;;;3.03;100.00
36726;BME280;44936;52.086;5.150;2023-04-04T00:21:38;103661.38;;;2.97;100.00
36726;BME280;44936;52.086;5.150;2023-04-04T00:24:03;103666.66;;;2.99;100.00
36726;BME280;44936;52.086;5.150;2023-04-04T00:26:29;103664.97;;;2.99;100.00
36726;BME280;44936;52.086;5.150;2023-04-04T00:28:54;103648.47;;;2.87;100.00
36726;BME280;44936;52.086;5.150;2023-04-04T00:31:20;103660.22;;;2.94;100.00
36726;BME280;44936;52.086;5.150;2023-04-04T00:33:45;103658.03;;;2.88;100.00
36726;BME280;44936;52.086;5.150;2023-04-04T00:36:11;103653.03;;;2.79;100.00
36726;BME280;44936;52.086;5.150;2023-04-04T00:38:36;103661.66;;;2.90;100.00
36726;BME280;44936;52.086;5.150;2023-04-04T00:41:02;103669.31;;;2.89;100.00
36726;BME280;44936;52.086;5.150;2023-04-04T00:43:28;103649.66;;;2.80;100.00
36726;BME280;44936;52.086;5.150;2023-04-04T00:45:53;103648.63;;;2.78;100.00
36726;BME280;44936;52.086;5.150;2023-04-04T00:48:19;103642.06;;;2.72;100.00
36726;BME280;44936;52.086;5.150;2023-04-04T00:50:45;103647.97;;;2.81;100.00
36726;BME280;44936;52.086;5.150;2023-04-04T00:53:10;103600.41;;;2.59;100.00
36726;BME280;44936;52.086;5.150;2023-04-04T00:55:39;103635.34;;;2.64;100.00
36726;BME280;44936;52.086;5.150;2023-04-04T00:58:04;103623.97;;;2.62;100.00
36726;BME280;44936;52.086;5.150;2023-04-04T01:00:33;103627.22;;;2.59;100.00
36726;BME280;44936;52.086;5.150;2023-04-04T01:02:59;103596.44;;;2.52;100.00
36726;BME280;44936;52.086;5.150;2023-04-04T01:05:24;103611.00;;;2.62;100.00
36726;BME280;44936;52.086;5.150;2023-04-04T01:07:50;103612.59;;;2.60;100.00
36726;BME280;44936;52.086;5.150;2023-04-04T01:10:16;103594.97;;;2.55;100.00
36726;BME280;44936;52.086;5.150;2023-04-04T01:12:41;103599.50;;;2.58;100.00
36726;BME280;44936;52.086;5.150;2023-04-04T01:15:07;103591.13;;;2.50;100.00
36726;BME280;44936;52.086;5.150;2023-04-04T01:17:33;103587.25;;;2.45;100.00
36726;BME280;44936;52.086;5.150;2023-04-04T01:22:36;103591.09;;;2.28;100.00
36726;BME280;44936;52.086;5.150;2023-04-04T01:25:04;103632.88;;;2.43;100.00
36726;BME280;44936;52.086;5.150;2023-04-04T01:27:30;103617.75;;;2.27;100.00
36726;BME280;44936;52.086;5.150;2023-04-04T01:29:55;103643.22;;;2.43;100.00
36726;BME280;44936;52.086;5.150;2023-04-04T01:32:45;103645.06;;;2.34;100.00
36726;BME280;44936;52.086;5.150;2023-04-04T01:35:39;103664.06;;;2.45;100.00
36726;BME280;44936;52.086;5.150;2023-04-04T01:38:23;103655.66;;;2.37;100.00
36726;BME280;44936;52.086;5.150;2023-04-04T01:40:54;103636.16;;;2.31;100.00
36726;BME280;44936;52.086;5.150;2023-04-04T01:43:20;103636.00;;;2.39;100.00
36726;BME280;44936;52.086;5.150;2023-04-04T01:45:45;103630.97;;;2.31;100.00
36726;BME280;44936;52.086;5.150;2023-04-04T01:48:11;103624.91;;;2.30;100.00
36726;BME280;44936;52.086;5.150;2023-04-04T01:50:36;103614.38;;;2.28;100.00
36726;BME280;44936;52.086;5.150;2023-04-04T01:53:02;103619.44;;;2.27;100.00
36726;BME280;44936;52.086;5.150;2023-04-04T01:55:27;103628.25;;;2.29;100.00
36726;BME280;44936;52.086;5.150;2023-04-04T01:57:52;103639.38;;;2.28;100.00
36726;BME280;44936;52.086;5.150;2023-04-04T02:00:18;103643.94;;;2.31;100.00
36726;BME280;44936;52.086;5.150;2023-04-04T02:02:43;103628.00;;;2.26;100.00
36726;BME280;44936;52.086;5.150;2023-04-04T02:05:08;103620.63;;;2.20;100.00
36726;BME280;44936;52.086;5.150;2023-04-04T02:07:34;103593.75;;;2.08;100.00
36726;BME280;44936;52.086;5.150;2023-04-04T02:09:59;103596.34;;;2.08;100.00
36726;BME280;44936;52.086;5.150;2023-04-04T02:12:25;103599.00;;;2.20;100.00
36726;BME280;44936;52.086;5.150;2023-04-04T02:14:51;103586.84;;;2.19;100.00
36726;BME280;44936;52.086;5.150;2023-04-04T02:17:16;103580.88;;;2.20;100.00
36726;BME280;44936;52.086;5.150;2023-04-04T02:19:42;103558.13;;;2.16;100.00
36726;BME280;44936;52.086;5.150;2023-04-04T02:22:07;103557.13;;;2.14;100.00
36726;BME280;44936;52.086;5.150;2023-04-04T02:24:33;103550.38;;;2.16;100.00
36726;BME280;44936;52.086;5.150;2023-04-04T02:26:58;103561.78;;;2.08;100.00
36726;BME280;44936;52.086;5.150;2023-04-04T02:29:23;103553.50;;;2.02;100.00
36726;BME280;44936;52.086;5.150;2023-04-04T02:31:49;103574.06;;;2.10;100.00
36726;BME280;44936;52.086;5.150;2023-04-04T02:34:14;103518.38;;;1.83;100.00
36726;BME280;44936;52.086;5.150;2023-04-04T02:36:39;103568.53;;;2.06;100.00
36726;BME280;44936;52.086;5.150;2023-04-04T02:39:05;103572.94;;;2.07;100.00
36726;BME280;44936;52.086;5.150;2023-04-04T02:41:30;103523.81;;;1.86;100.00
36726;BME280;44936;52.086;5.150;2023-04-04T02:43:56;103530.22;;;2.02;100.00
36726;BME280;44936;52.086;5.150;2023-04-04T02:46:21;103491.25;;;1.78;100.00
36726;BME280;44936;52.086;5.150;2023-04-04T02:48:47;103489.78;;;1.82;100.00
36726;BME280;44936;52.086;5.150;2023-04-04T02:51:15;103531.91;;;2.01;100.00
36726;BME280;44936;52.086;5.150;2023-04-04T02:53:41;103479.38;;;1.70;100.00
36726;BME280;44936;52.086;5.150;2023-04-04T02:56:06;103528.41;;;2.01;100.00
36726;BME280;44936;52.086;5.150;2023-04-04T02:58:32;103512.25;;;1.93;100.00
36726;BME280;44936;52.086;5.150;2023-04-04T03:00:58;103512.66;;;1.97;100.00
36726;BME280;44936;52.086;5.150;2023-04-04T03:03:23;103510.28;;;2.01;100.00
36726;BME280;44936;52.086;5.150;2023-04-04T03:05:49;103477.91;;;1.74;100.00
36726;BME280;44936;52.086;5.150;2023-04-04T03:08:15;103500.38;;;1.85;100.00
36726;BME280;44936;52.086;5.150;2023-04-04T03:10:41;103511.00;;;1.88;100.00
36726;BME280;44936;52.086;5.150;2023-04-04T03:13:06;103526.88;;;1.92;100.00
36726;BME280;44936;52.086;5.150;2023-04-04T03:15:31;103518.50;;;1.85;100.00
36726;BME280;44936;52.086;5.150;2023-04-04T03:17:57;103535.44;;;1.91;100.00
36726;BME280;44936;52.086;5.150;2023-04-04T03:20:23;103500.41;;;1.75;100.00
36726;BME280;44936;52.086;5.150;2023-04-04T03:22:49;103529.00;;;1.86;100.00
36726;BME280;44936;52.086;5.150;2023-04-04T03:25:15;103537.00;;;1.89;100.00
36726;BME280;44936;52.086;5.150;2023-04-04T03:27:41;103493.09;;;1.69;100.00
36726;BME280;44936;52.086;5.150;2023-04-04T03:30:07;103520.91;;;1.93;100.00
36726;BME280;44936;52.086;5.150;2023-04-04T03:32:33;103495.34;;;1.86;100.00
36726;BME280;44936;52.086;5.150;2023-04-04T03:34:58;103466.53;;;1.72;100.00
36726;BME280;44936;52.086;5.150;2023-04-04T03:37:23;103417.09;;;1.47;100.00
36726;BME280;44936;52.086;5.150;2023-04-04T03:39:49;103443.31;;;1.61;100.00
36726;BME280;44936;52.086;5.150;2023-04-04T03:42:14;103465.75;;;1.73;100.00
36726;BME280;44936;52.086;5.150;2023-04-04T03:44:40;103460.19;;;1.78;100.00
36726;BME280;44936;52.086;5.150;2023-04-04T03:47:05;103419.41;;;1.54;100.00
36726;BME280;44936;52.086;5.150;2023-04-04T03:49:31;103423.91;;;1.56;100.00
36726;BME280;44936;52.086;5.150;2023-04-04T03:51:57;103456.56;;;1.76;100.00
36726;BME280;44936;52.086;5.150;2023-04-04T03:54:23;103435.66;;;1.63;100.00
36726;BME280;44936;52.086;5.150;2023-04-04T03:56:48;103401.97;;;1.41;100.00
36726;BME280;44936;52.086;5.150;2023-04-04T03:59:13;103435.44;;;1.60;100.00
36726;BME280;44936;52.086;5.150;2023-04-04T04:01:39;103459.03;;;1.75;100.00
36726;BME280;44936;52.086;5.150;2023-04-04T04:04:04;103441.75;;;1.63;100.00
36726;BME280;44936;52.086;5.150;2023-04-04T04:06:30;103429.09;;;1.56;100.00
36726;BME280;44936;52.086;5.150;2023-04-04T04:08:56;103399.53;;;1.42;100.00
36726;BME280;44936;52.086;5.150;2023-04-04T04:11:22;103412.59;;;1.44;100.00
36726;BME280;44936;52.086;5.150;2023-04-04T04:13:48;103415.28;;;1.46;100.00
36726;BME280;44936;52.086;5.150;2023-04-04T04:16:13;103372.94;;;1.23;100.00
36726;BME280;44936;52.086;5.150;2023-04-04T04:18:38;103389.97;;;1.31;100.00
36726;BME280;44936;52.086;5.150;2023-04-04T04:21:04;103410.50;;;1.40;100.00
36726;BME280;44936;52.086;5.150;2023-04-04T04:23:30;103447.69;;;1.62;100.00
36726;BME280;44936;52.086;5.150;2023-04-04T04:25:56;103440.34;;;1.57;100.00
36726;BME280;44936;52.086;5.150;2023-04-04T04:28:22;103434.03;;;1.53;100.00
36726;BME280;44936;52.086;5.150;2023-04-04T04:30:50;103394.53;;;1.34;100.00
36726;BME280;44936;52.086;5.150;2023-04-04T04:33:16;103420.69;;;1.49;100.00
36726;BME280;44936;52.086;5.150;2023-04-04T04:35:41;103418.00;;;1.47;100.00
36726;BME280;44936;52.086;5.150;2023-04-04T04:38:07;103435.81;;;1.54;100.00
36726;BME280;44936;52.086;5.150;2023-04-04T04:40:33;103407.81;;;1.38;100.00
36726;BME280;44936;52.086;5.150;2023-04-04T04:42:58;103431.81;;;1.48;100.00
36726;BME280;44936;52.086;5.150;2023-04-04T04:45:24;103387.06;;;1.17;100.00
36726;BME280;44936;52.086;5.150;2023-04-04T04:47:50;103402.56;;;1.27;100.00
36726;BME280;44936;52.086;5.150;2023-04-04T04:50:16;103406.81;;;1.26;100.00
36726;BME280;44936;52.086;5.150;2023-04-04T04:52:42;103456.00;;;1.48;100.00
36726;BME280;44936;52.086;5.150;2023-04-04T04:55:07;103393.66;;;1.13;100.00
36726;BME280;44936;52.086;5.150;2023-04-04T04:57:33;103454.09;;;1.46;100.00
36726;BME280;44936;52.086;5.150;2023-04-04T04:59:59;103454.09;;;1.46;100.00
36726;BME280;44936;52.086;5.150;2023-04-04T05:02:25;103458.47;;;1.47;100.00
36726;BME280;44936;52.086;5.150;2023-04-04T05:04:50;103428.91;;;1.33;100.00
36726;BME280;44936;52.086;5.150;2023-04-04T05:07:16;103429.56;;;1.30;100.00
36726;BME280;44936;52.086;5.150;2023-04-04T05:09:41;103418.47;;;1.21;100.00
36726;BME280;44936;52.086;5.150;2023-04-04T05:12:07;103417.69;;;1.22;100.00
36726;BME280;44936;52.086;5.150;2023-04-04T05:14:32;103432.91;;;1.29;100.00
36726;BME280;44936;52.086;5.150;2023-04-04T05:16:57;103402.19;;;1.12;100.00
36726;BME280;44936;52.086;5.150;2023-04-04T05:19:23;103421.31;;;1.24;100.00
36726;BME280;44936;52.086;5.150;2023-04-04T05:21:48;103423.13;;;1.25;100.00
36726;BME280;44936;52.086;5.150;2023-04-04T05:24:13;103435.00;;;1.33;100.00
36726;BME280;44936;52.086;5.150;2023-04-04T05:26:41;103441.19;;;1.35;100.00
36726;BME280;44936;52.086;5.150;2023-04-04T05:29:06;103461.84;;;1.46;100.00
36726;BME280;44936;52.086;5.150;2023-04-04T05:31:32;103452.03;;;1.41;100.00
36726;BME280;44936;52.086;5.150;2023-04-04T05:33:57;103453.06;;;1.44;100.00
36726;BME280;44936;52.086;5.150;2023-04-04T05:36:23;103401.69;;;1.16;100.00
36726;BME280;44936;52.086;5.150;2023-04-04T05:38:49;103419.88;;;1.28;100.00
36726;BME280;44936;52.086;5.150;2023-04-04T05:41:14;103454.31;;;1.49;100.00
36726;BME280;44936;52.086;5.150;2023-04-04T05:43:39;103462.19;;;1.50;100.00
36726;BME280;44936;52.086;5.150;2023-04-04T05:46:05;103430.56;;;1.32;100.00
36726;BME280;44936;52.086;5.150;2023-04-04T05:48:30;103455.78;;;1.45;100.00
36726;BME280;44936;52.086;5.150;2023-04-04T05:50:55;103426.19;;;1.31;100.00
36726;BME280;44936;52.086;5.150;2023-04-04T05:53:21;103462.19;;;1.50;100.00
36726;BME280;44936;52.086;5.150;2023-04-04T05:55:50;103424.91;;;1.26;100.00
36726;BME280;44936;52.086;5.150;2023-04-04T05:58:16;103428.00;;;1.32;100.00
36726;BME280;44936;52.086;5.150;2023-04-04T06:00:42;103467.75;;;1.55;100.00
36726;BME280;44936;52.086;5.150;2023-04-04T06:03:08;103457.19;;;1.52;100.00
36726;BME280;44936;52.086;5.150;2023-04-04T06:05:34;103464.41;;;1.56;100.00
36726;BME280;44936;52.086;5.150;2023-04-04T06:07:59;103440.91;;;1.42;100.00
36726;BME280;44936;52.086;5.150;2023-04-04T06:10:25;103464.91;;;1.62;100.00
36726;BME280;44936;52.086;5.150;2023-04-04T06:12:50;103441.94;;;1.45;100.00
36726;BME280;44936;52.086;5.150;2023-04-04T06:15:15;103450.19;;;1.51;100.00
36726;BME280;44936;52.086;5.150;2023-04-04T06:17:41;103416.63;;;1.30;100.00
36726;BME280;44936;52.086;5.150;2023-04-04T06:20:07;103448.09;;;1.57;100.00
36726;BME280;44936;52.086;5.150;2023-04-04T06:22:32;103461.00;;;1.67;100.00
36726;BME280;44936;52.086;5.150;2023-04-04T06:24:59;103448.84;;;1.66;100.00
36726;BME280;44936;52.086;5.150;2023-04-04T06:27:24;103465.09;;;1.75;100.00
36726;BME280;44936;52.086;5.150;2023-04-04T06:29:50;103434.75;;;1.62;100.00
36726;BME280;44936;52.086;5.150;2023-04-04T06:32:15;103398.22;;;1.48;100.00
36726;BME280;44936;52.086;5.150;2023-04-04T06:34:40;103419.13;;;1.61;100.00
36726;BME280;44936;52.086;5.150;2023-04-04T06:37:06;103424.00;;;1.68;100.00
36726;BME280;44936;52.086;5.150;2023-04-04T06:39:31;103451.34;;;1.86;100.00
36726;BME280;44936;52.086;5.150;2023-04-04T06:41:58;103436.75;;;1.77;100.00
36726;BME280;44936;52.086;5.150;2023-04-04T06:44:24;103415.63;;;1.60;100.00
36726;BME280;44936;52.086;5.150;2023-04-04T06:46:50;103429.53;;;1.73;100.00
36726;BME280;44936;52.086;5.150;2023-04-04T06:49:15;103469.72;;;1.89;100.00
36726;BME280;44936;52.086;5.150;2023-04-04T06:51:40;103488.97;;;1.93;100.00
36726;BME280;44936;52.086;5.150;2023-04-04T06:54:06;103498.28;;;1.91;100.00
36726;BME280;44936;52.086;5.150;2023-04-04T06:56:32;103513.91;;;1.70;100.00
36726;BME280;44936;52.086;5.150;2023-04-04T06:58:57;103548.03;;;1.77;100.00
36726;BME280;44936;52.086;5.150;2023-04-04T07:01:23;103621.56;;;2.11;100.00
36726;BME280;44936;52.086;5.150;2023-04-04T07:03:51;103601.16;;;1.93;100.00
36726;BME280;44936;52.086;5.150;2023-04-04T07:06:17;103642.81;;;2.07;100.00
36726;BME280;44936;52.086;5.150;2023-04-04T07:08:43;103651.97;;;2.23;100.00
36726;BME280;44936;52.086;5.150;2023-04-04T07:11:08;103655.44;;;2.34;100.00
36726;BME280;44936;52.086;5.150;2023-04-04T07:13:34;103650.38;;;2.36;100.00
36726;BME280;44936;52.086;5.150;2023-04-04T07:15:59;103631.72;;;2.40;100.00
36726;BME280;44936;52.086;5.150;2023-04-04T07:18:25;103564.09;;;2.15;100.00
36726;BME280;44936;52.086;5.150;2023-04-04T07:20:51;103609.13;;;2.17;100.00
36726;BME280;44936;52.086;5.150;2023-04-04T07:23:16;103606.16;;;2.22;100.00
36726;BME280;44936;52.086;5.150;2023-04-04T07:25:41;103644.56;;;2.28;100.00
36726;BME280;44936;52.086;5.150;2023-04-04T07:28:07;103625.56;;;2.17;100.00
36726;BME280;44936;52.086;5.150;2023-04-04T07:30:32;103693.69;;;2.59;100.00
36726;BME280;44936;52.086;5.150;2023-04-04T07:32:58;103700.28;;;2.65;100.00
36726;BME280;44936;52.086;5.150;2023-04-04T07:35:24;103681.13;;;2.53;100.00
36726;BME280;44936;52.086;5.150;2023-04-04T07:37:50;103693.25;;;2.64;100.00
36726;BME280;44936;52.086;5.150;2023-04-04T07:40:16;103692.13;;;2.61;100.00
36726;BME280;44936;52.086;5.150;2023-04-04T07:42:45;103660.97;;;2.49;100.00
36726;BME280;44936;52.086;5.150;2023-04-04T07:45:12;103709.97;;;2.68;100.00
36726;BME280;44936;52.086;5.150;2023-04-04T07:47:42;103683.78;;;2.75;100.00
36726;BME280;44936;52.086;5.150;2023-04-04T07:50:08;103701.22;;;2.88;100.00
36726;BME280;44936;52.086;5.150;2023-04-04T07:52:33;103707.25;;;2.98;100.00
36726;BME280;44936;52.086;5.150;2023-04-04T07:54:59;103715.81;;;2.97;100.00
36726;BME280;44936;52.086;5.150;2023-04-04T07:57:25;103715.03;;;2.98;100.00
36726;BME280;44936;52.086;5.150;2023-04-04T07:59:50;103710.56;;;3.07;100.00
36726;BME280;44936;52.086;5.150;2023-04-04T08:02:15;103650.31;;;2.78;100.00
36726;BME280;44936;52.086;5.150;2023-04-04T08:04:41;103696.28;;;3.12;100.00
36726;BME280;44936;52.086;5.150;2023-04-04T08:07:06;103646.97;;;3.01;100.00
36726;BME280;44936;52.086;5.150;2023-04-04T08:09:31;103621.88;;;3.11;100.00
36726;BME280;44936;52.086;5.150;2023-04-04T08:12:00;103596.66;;;3.21;100.00
36726;BME280;44936;52.086;5.150;2023-04-04T08:14:31;103591.56;;;3.22;100.00
36726;BME280;44936;52.086;5.150;2023-04-04T08:16:57;103558.19;;;3.27;100.00
36726;BME280;44936;52.086;5.150;2023-04-04T08:19:22;103544.69;;;3.31;100.00
36726;BME280;44936;52.086;5.150;2023-04-04T08:21:48;103560.72;;;3.37;100.00
36726;BME280;44936;52.086;5.150;2023-04-04T08:24:14;103563.22;;;3.47;100.00
36726;BME280;44936;52.086;5.150;2023-04-04T08:26:39;103555.75;;;3.52;100.00
36726;BME280;44936;52.086;5.150;2023-04-04T08:29:04;103542.13;;;3.54;100.00
36726;BME280;44936;52.086;5.150;2023-04-04T08:31:30;103570.09;;;3.70;100.00
36726;BME280;44936;52.086;5.150;2023-04-04T08:33:56;103540.78;;;3.71;100.00
36726;BME280;44936;52.086;5.150;2023-04-04T08:36:21;103538.19;;;3.83;100.00
36726;BME280;44936;52.086;5.150;2023-04-04T08:38:47;103506.25;;;3.84;100.00
36726;BME280;44936;52.086;5.150;2023-04-04T08:41:12;103520.88;;;3.95;100.00
36726;BME280;44936;52.086;5.150;2023-04-04T08:43:40;103524.03;;;4.03;100.00
36726;BME280;44936;52.086;5.150;2023-04-04T08:46:08;103517.50;;;4.08;100.00
36726;BME280;44936;52.086;5.150;2023-04-04T08:48:35;103502.47;;;4.15;100.00
36726;BME280;44936;52.086;5.150;2023-04-04T08:51:02;103504.13;;;4.26;100.00
36726;BME280;44936;52.086;5.150;2023-04-04T08:53:29;103488.97;;;4.33;100.00
36726;BME280;44936;52.086;5.150;2023-04-04T08:55:55;103465.56;;;4.44;100.00
36726;BME280;44936;52.086;5.150;2023-04-04T08:58:23;103491.59;;;4.58;100.00
36726;BME280;44936;52.086;5.150;2023-04-04T09:00:52;103453.50;;;4.58;100.00
36726;BME280;44936;52.086;5.150;2023-04-04T09:03:28;103425.53;;;4.67;100.00
36726;BME280;44936;52.086;5.150;2023-04-04T09:05:57;103432.97;;;4.74;100.00
36726;BME280;44936;52.086;5.150;2023-04-04T09:08:22;103448.38;;;4.84;100.00
36726;BME280;44936;52.086;5.150;2023-04-04T09:10:51;103434.09;;;4.91;100.00
36726;BME280;44936;52.086;5.150;2023-04-04T09:13:17;103426.50;;;4.94;100.00
36726;BME280;44936;52.086;5.150;2023-04-04T09:15:49;103409.69;;;5.02;100.00
36726;BME280;44936;52.086;5.150;2023-04-04T09:18:15;103392.81;;;5.09;100.00
36726;BME280;44936;52.086;5.150;2023-04-04T09:20:44;103343.38;;;4.82;100.00
36726;BME280;44936;52.086;5.150;2023-04-04T09:23:14;103338.59;;;4.89;100.00
36726;BME280;44936;52.086;5.150;2023-04-04T09:25:45;103392.59;;;5.19;100.00
36726;BME280;44936;52.086;5.150;2023-04-04T09:28:14;103394.94;;;5.15;100.00
36726;BME280;44936;52.086;5.150;2023-04-04T09:30:39;103446.38;;;5.45;100.00
36726;BME280;44936;52.086;5.150;2023-04-04T09:33:05;103401.84;;;5.40;100.00
36726;BME280;44936;52.086;5.150;2023-04-04T09:35:34;103395.44;;;5.49;100.00
36726;BME280;44936;52.086;5.150;2023-04-04T09:38:02;103346.97;;;5.37;100.00
36726;BME280;44936;52.086;5.150;2023-04-04T09:40:28;103355.34;;;5.47;100.00
36726;BME280;44936;52.086;5.150;2023-04-04T09:42:58;103391.19;;;5.64;100.00
36726;BME280;44936;52.086;5.150;2023-04-04T09:45:24;103376.59;;;5.66;100.00
36726;BME280;44936;52.086;5.150;2023-04-04T09:47:50;103355.94;;;5.69;100.00
36726;BME280;44936;52.086;5.150;2023-04-04T09:50:24;103336.47;;;5.77;100.00
36726;BME280;44936;52.086;5.150;2023-04-04T09:52:55;103333.56;;;5.73;100.00
36726;BME280;44936;52.086;5.150;2023-04-04T09:55:30;103349.09;;;5.84;100.00
36726;BME280;44936;52.086;5.150;2023-04-04T09:57:56;103362.50;;;5.90;100.00
36726;BME280;44936;52.086;5.150;2023-04-04T10:00:21;103329.41;;;5.89;100.00
36726;BME280;44936;52.086;5.150;2023-04-04T10:02:47;103346.75;;;6.02;100.00
36726;BME280;44936;52.086;5.150;2023-04-04T10:05:13;103332.63;;;5.99;100.00
36726;BME280;44936;52.086;5.150;2023-04-04T10:07:39;103327.16;;;6.09;100.00
36726;BME280;44936;52.086;5.150;2023-04-04T10:10:05;103301.34;;;5.99;100.00
36726;BME280;44936;52.086;5.150;2023-04-04T10:12:31;103318.66;;;6.26;100.00
36726;BME280;44936;52.086;5.150;2023-04-04T10:14:58;103300.94;;;6.06;100.00
36726;BME280;44936;52.086;5.150;2023-04-04T10:17:29;103269.84;;;5.94;100.00
36726;BME280;44936;52.086;5.150;2023-04-04T10:19:57;103287.38;;;6.11;100.00
36726;BME280;44936;52.086;5.150;2023-04-04T10:22:24;103308.69;;;6.34;100.00
36726;BME280;44936;52.086;5.150;2023-04-04T10:24:50;103333.34;;;6.39;100.00
36726;BME280;44936;52.086;5.150;2023-04-04T10:27:18;103334.25;;;6.39;100.00
36726;BME280;44936;52.086;5.150;2023-04-04T10:29:44;103332.63;;;6.41;100.00
36726;BME280;44936;52.086;5.150;2023-04-04T10:32:16;103313.84;;;6.47;100.00
36726;BME280;44936;52.086;5.150;2023-04-04T10:34:51;103291.09;;;6.59;100.00
36726;BME280;44936;52.086;5.150;2023-04-04T10:37:24;103304.66;;;6.53;100.00
36726;BME280;44936;52.086;5.150;2023-04-04T10:40:02;103275.81;;;6.65;100.00
36726;BME280;44936;52.086;5.150;2023-04-04T10:42:31;103243.38;;;6.45;100.00
36726;BME280;44936;52.086;5.150;2023-04-04T10:45:01;103254.13;;;6.66;100.00
36726;BME280;44936;52.086;5.150;2023-04-04T10:47:28;103285.06;;;6.75;100.00
36726;BME280;44936;52.086;5.150;2023-04-04T10:49:54;103255.41;;;6.58;100.00
36726;BME280;44936;52.086;5.150;2023-04-04T10:52:25;103254.38;;;6.71;100.00
36726;BME280;44936;52.086;5.150;2023-04-04T10:54:53;103237.38;;;6.77;100.00
36726;BME280;44936;52.086;5.150;2023-04-04T10:57:19;103253.84;;;6.76;100.00
36726;BME280;44936;52.086;5.150;2023-04-04T11:05:26;103262.88;;;6.98;100.00
36726;BME280;44936;52.086;5.150;2023-04-04T11:08:00;103247.50;;;7.02;100.00
36726;BME280;44936;52.086;5.150;2023-04-04T11:10:34;103271.25;;;7.07;100.00
36726;BME280;44936;52.086;5.150;2023-04-04T11:13:02;103222.66;;;6.94;100.00
36726;BME280;44936;52.086;5.150;2023-04-04T11:16:04;103263.31;;;7.05;100.00
36726;BME280;44936;52.086;5.150;2023-04-04T11:21:00;103236.00;;;7.15;100.00
36726;BME280;44936;52.086;5.150;2023-04-04T11:23:26;103197.53;;;7.27;100.00
36726;BME280;44936;52.086;5.150;2023-04-04T11:25:55;103199.47;;;7.31;100.00
36726;BME280;44936;52.086;5.150;2023-04-04T11:28:25;103193.56;;;7.34;100.00
36726;BME280;44936;52.086;5.150;2023-04-04T11:39:03;103254.88;;;7.26;100.00
36726;BME280;44936;52.086;5.150;2023-04-04T11:41:44;103240.34;;;7.31;100.00
36726;BME280;44936;52.086;5.150;2023-04-04T11:44:12;103184.81;;;7.33;100.00
36726;BME280;44936;52.086;5.150;2023-04-04T11:46:37;103190.91;;;7.50;100.00
36726;BME280;44936;52.086;5.150;2023-04-04T11:49:03;103185.88;;;7.53;100.00
36726;BME280;44936;52.086;5.150;2023-04-04T11:51:30;103207.81;;;7.57;100.00
36726;BME280;44936;52.086;5.150;2023-04-04T11:53:56;103179.28;;;7.44;100.00
36726;BME280;44936;52.086;5.150;2023-04-04T11:56:21;103181.13;;;7.62;100.00
36726;BME280;44936;52.086;5.150;2023-04-04T11:58:47;103144.91;;;7.69;100.00
36726;BME280;44936;52.086;5.150;2023-04-04T12:01:13;103128.97;;;7.64;100.00
36726;BME280;44936;52.086;5.150;2023-04-04T12:03:39;103134.28;;;7.49;100.00
36726;BME280;44936;52.086;5.150;2023-04-04T12:06:05;103144.38;;;7.59;100.00
36726;BME280;44936;52.086;5.150;2023-04-04T12:08:31;103127.78;;;7.75;100.00
36726;BME280;44936;52.086;5.150;2023-04-04T12:11:03;103170.94;;;8.01;100.00
36726;BME280;44936;52.086;5.150;2023-04-04T12:13:31;103141.56;;;7.89;100.00
36726;BME280;44936;52.086;5.150;2023-04-04T12:15:57;103123.31;;;7.73;100.00
36726;BME280;44936;52.086;5.150;2023-04-04T12:18:22;103151.38;;;8.11;100.00
36726;BME280;44936;52.086;5.150;2023-04-04T12:20:51;103134.97;;;8.13;100.00
36726;BME280;44936;52.086;5.150;2023-04-04T12:23:17;103111.97;;;8.06;100.00
36726;BME280;44936;52.086;5.150;2023-04-04T12:25:43;103148.19;;;8.16;100.00
36726;BME280;44936;52.086;5.150;2023-04-04T12:28:09;103120.91;;;8.11;100.00
36726;BME280;44936;52.086;5.150;2023-04-04T12:30:38;103163.13;;;8.19;100.00
36726;BME280;44936;52.086;5.150;2023-04-04T12:33:06;103124.78;;;8.02;100.00
36726;BME280;44936;52.086;5.150;2023-04-04T12:35:31;103053.25;;;7.82;100.00
36726;BME280;44936;52.086;5.150;2023-04-04T12:38:03;103139.91;;;8.25;100.00
36726;BME280;44936;52.086;5.150;2023-04-04T12:40:33;103051.69;;;8.03;100.00
36726;BME280;44936;52.086;5.150;2023-04-04T12:43:02;103075.00;;;8.16;100.00
36726;BME280;44936;52.086;5.150;2023-04-04T12:45:28;103083.59;;;8.14;100.00
36726;BME280;44936;52.086;5.150;2023-04-04T12:47:54;103109.56;;;8.46;100.00
36726;BME280;44936;52.086;5.150;2023-04-04T12:50:22;103076.63;;;8.50;100.00
36726;BME280;44936;52.086;5.150;2023-04-04T12:52:51;103090.75;;;8.54;100.00
36726;BME280;44936;52.086;5.150;2023-04-04T12:55:20;103087.22;;;8.53;100.00
36726;BME280;44936;52.086;5.150;2023-04-04T12:57:47;103095.78;;;8.49;100.00
36726;BME280;44936;52.086;5.150;2023-04-04T13:00:12;103075.50;;;8.45;100.00
36726;BME280;44936;52.086;5.150;2023-04-04T13:02:42;103105.94;;;8.43;100.00
36726;BME280;44936;52.086;5.150;2023-04-04T13:05:10;103028.72;;;8.33;100.00
36726;BME280;44936;52.086;5.150;2023-04-04T13:07:37;103095.13;;;8.72;100.00